createdAt,value
2022-12-03T00:01:32.900Z,43.67
2022-12-03T00:04:00.922Z,43.60
2022-12-03T00:06:34.392Z,40.80
2022-12-03T00:09:02.768Z,40.80
2022-12-03T00:11:30.627Z,39.30
2022-12-03T00:13:58.521Z,44.47
2022-12-03T00:16:27.776Z,40.28
2022-12-03T00:18:55.758Z,44.42
2022-12-03T00:21:24.776Z,42.70
2022-12-03T00:23:52.829Z,41.38
2022-12-03T00:26:20.706Z,42.03
2022-12-03T00:28:48.538Z,40.38
2022-12-03T00:31:16.410Z,40.03
2022-12-03T00:33:45.651Z,39.75
2022-12-03T00:36:13.564Z,38.55
2022-12-03T00:38:41.405Z,45.85
2022-12-03T00:41:09.253Z,42.85
2022-12-03T00:43:37.132Z,40.03
2022-12-03T00:46:05.071Z,36.45
2022-12-03T00:48:32.962Z,42.90
2022-12-03T00:51:02.170Z,39.67
2022-12-03T00:53:30.144Z,41.97
2022-12-03T00:55:57.991Z,37.08
2022-12-03T00:58:25.818Z,40.53
2022-12-03T01:00:53.685Z,36.33
2022-12-03T01:03:21.503Z,34.60
2022-12-03T01:05:49.368Z,37.67
2022-12-03T01:08:18.589Z,40.38
2022-12-03T01:10:46.497Z,37.33
2022-12-03T01:13:14.321Z,38.85
2022-12-03T01:15:42.372Z,39.63
2022-12-03T01:18:10.247Z,33.63
2022-12-03T01:20:38.641Z,34.65
2022-12-03T01:23:06.864Z,34.60
2022-12-03T01:25:36.054Z,30.90
2022-12-03T01:28:03.890Z,30.85
2022-12-03T01:30:51.982Z,31.73
2022-12-03T01:33:18.900Z,34.10
2022-12-03T01:35:46.791Z,31.75
2022-12-03T01:38:14.657Z,34.50
2022-12-03T01:40:43.868Z,33.47
2022-12-03T01:43:11.739Z,30.92
2022-12-03T01:45:39.657Z,28.67
2022-12-03T01:48:07.765Z,31.98
2022-12-03T01:50:35.640Z,31.40
2022-12-03T01:53:05.006Z,31.33
2022-12-03T01:55:32.955Z,27.45
2022-12-03T01:58:03.238Z,30.10
2022-12-03T02:00:31.652Z,26.65
2022-12-03T02:03:01.943Z,23.65
2022-12-03T02:05:31.683Z,25.05
2022-12-03T02:08:00.297Z,22.95
2022-12-03T02:10:31.735Z,22.55
2022-12-03T02:13:04.080Z,23.83
2022-12-03T02:17:59.700Z,20.10
2022-12-03T02:20:27.978Z,20.98
2022-12-03T02:23:04.376Z,22.10
2022-12-03T02:25:36.545Z,21.88
2022-12-03T02:28:06.944Z,23.58
2022-12-03T02:30:35.387Z,23.48
2022-12-03T02:33:04.064Z,23.13
2022-12-03T02:35:35.756Z,22.05
2022-12-03T02:38:14.161Z,22.73
2022-12-03T02:40:44.539Z,25.63
2022-12-03T02:43:12.292Z,28.30
2022-12-03T02:45:42.979Z,23.98
2022-12-03T02:48:15.261Z,25.88
2022-12-03T02:53:17.276Z,23.20
2022-12-03T02:55:46.954Z,24.40
2022-12-03T02:58:15.402Z,21.63
2022-12-03T03:00:44.254Z,24.05
2022-12-03T03:03:12.637Z,23.50
2022-12-03T03:05:41.883Z,20.58
2022-12-03T03:08:11.179Z,22.48
2022-12-03T03:10:41.138Z,22.73
2022-12-03T03:13:12.304Z,22.50
2022-12-03T03:15:41.355Z,20.73
2022-12-03T03:18:10.432Z,25.05
2022-12-03T03:20:38.747Z,24.98
2022-12-03T03:23:08.054Z,23.35
2022-12-03T03:25:35.937Z,27.67
2022-12-03T03:28:03.965Z,25.85
2022-12-03T03:30:33.830Z,25.38
2022-12-03T03:33:02.172Z,26.90
2022-12-03T03:35:30.056Z,27.10
2022-12-03T03:37:59.224Z,23.08
2022-12-03T03:40:27.963Z,24.30
2022-12-03T03:42:56.506Z,27.00
2022-12-03T03:45:29.041Z,24.15
2022-12-03T03:47:59.954Z,26.52
2022-12-03T03:50:29.066Z,29.92
2022-12-03T03:52:57.892Z,32.40
2022-12-03T03:55:26.144Z,28.73
2022-12-03T03:57:54.132Z,29.48
2022-12-03T04:00:22.408Z,28.10
2022-12-03T04:02:50.252Z,30.05
2022-12-03T04:05:21.313Z,28.92
2022-12-03T04:07:49.257Z,30.02
2022-12-03T04:10:35.633Z,28.02
2022-12-03T04:13:03.979Z,30.95
2022-12-03T04:15:31.812Z,29.35
2022-12-03T04:18:17.223Z,32.72
2022-12-03T04:20:46.415Z,27.90
2022-12-03T04:23:13.274Z,26.02
2022-12-03T04:25:58.851Z,27.63
2022-12-03T04:28:44.334Z,31.70
2022-12-03T04:31:29.730Z,30.52
2022-12-03T04:34:15.128Z,32.33
2022-12-03T04:36:44.305Z,25.48
2022-12-03T04:39:12.181Z,26.33
2022-12-03T04:41:40.006Z,28.98
2022-12-03T04:44:25.635Z,25.00
2022-12-03T04:46:53.487Z,26.40
2022-12-03T04:49:21.341Z,25.92
2022-12-03T04:51:50.552Z,25.55
2022-12-03T04:54:18.829Z,24.83
2022-12-03T04:56:46.655Z,24.25
2022-12-03T04:59:16.464Z,24.80
2022-12-03T05:01:45.753Z,27.23
2022-12-03T05:04:14.024Z,27.55
2022-12-03T05:06:42.843Z,27.42
2022-12-03T05:09:12.100Z,25.63
2022-12-03T05:11:40.072Z,27.52
2022-12-03T05:14:08.117Z,27.67
2022-12-03T05:16:36.392Z,25.50
2022-12-03T05:19:05.271Z,23.63
2022-12-03T05:21:32.320Z,24.45
2022-12-03T05:24:00.318Z,26.60
2022-12-03T05:26:29.484Z,23.00
2022-12-03T05:28:57.365Z,21.15
2022-12-03T05:31:25.266Z,21.95
2022-12-03T05:33:54.647Z,20.35
2022-12-03T05:36:22.528Z,21.48
2022-12-03T05:38:50.406Z,20.85
2022-12-03T05:41:35.532Z,19.48
2022-12-03T05:44:04.763Z,22.35
2022-12-03T05:46:32.874Z,20.42
2022-12-03T05:49:00.780Z,25.63
2022-12-03T05:51:28.847Z,22.98
2022-12-03T05:53:56.699Z,18.13
2022-12-03T05:56:24.523Z,20.38
2022-12-03T05:58:52.355Z,19.23
2022-12-03T06:01:21.543Z,19.90
2022-12-03T06:03:49.564Z,19.00
2022-12-03T06:06:17.510Z,19.25
2022-12-03T06:08:45.362Z,18.65
2022-12-03T06:11:13.196Z,18.30
2022-12-03T06:13:41.062Z,18.90
2022-12-03T06:16:09.165Z,20.00
2022-12-03T06:18:38.467Z,17.77
2022-12-03T06:21:06.746Z,17.70
2022-12-03T06:23:34.593Z,17.85
2022-12-03T06:26:02.443Z,19.73
2022-12-03T06:28:30.277Z,19.52
2022-12-03T06:30:58.161Z,17.38
2022-12-03T06:33:26.045Z,21.10
2022-12-03T06:35:55.242Z,21.10
2022-12-03T06:38:23.285Z,20.30
2022-12-03T06:40:51.124Z,21.13
2022-12-03T06:43:19.038Z,21.33
2022-12-03T06:45:47.957Z,23.05
2022-12-03T06:48:16.382Z,23.02
2022-12-03T06:50:44.223Z,22.55
2022-12-03T06:53:13.467Z,27.00
2022-12-03T06:55:41.309Z,29.00
2022-12-03T06:58:09.127Z,28.77
2022-12-03T07:00:36.987Z,26.35
2022-12-03T07:03:04.972Z,27.30
2022-12-03T07:05:32.876Z,28.65
2022-12-03T07:08:00.777Z,24.92
2022-12-03T07:10:30.178Z,26.65
2022-12-03T07:12:58.315Z,24.55
2022-12-03T07:15:26.217Z,28.88
2022-12-03T07:17:54.073Z,29.23
2022-12-03T07:20:21.994Z,31.38
2022-12-03T07:22:49.898Z,29.98
2022-12-03T07:25:22.877Z,27.77
2022-12-03T07:27:52.761Z,27.05
2022-12-03T07:30:20.862Z,31.20
2022-12-03T07:32:48.829Z,30.40
2022-12-03T07:35:17.310Z,29.70
2022-12-03T07:37:45.160Z,27.95
2022-12-03T07:40:14.110Z,30.45
2022-12-03T07:42:41.987Z,29.63
2022-12-03T07:45:12.123Z,30.23
2022-12-03T07:47:40.007Z,26.27
2022-12-03T07:50:09.086Z,23.35
2022-12-03T07:52:36.915Z,26.77
2022-12-03T07:55:05.228Z,24.40
2022-12-03T07:57:33.083Z,25.13
2022-12-03T08:00:00.922Z,22.55
2022-12-03T08:02:30.221Z,25.00
2022-12-03T08:04:58.201Z,28.52
2022-12-03T08:07:26.114Z,30.30
2022-12-03T08:09:54.034Z,29.35
2022-12-03T08:12:39.791Z,26.50
2022-12-03T08:15:12.545Z,28.40
2022-12-03T08:17:42.876Z,26.00
2022-12-03T08:20:15.874Z,25.42
2022-12-03T08:22:44.944Z,27.63
2022-12-03T08:25:18.195Z,25.10
2022-12-03T08:27:46.039Z,26.90
2022-12-03T08:30:16.398Z,30.27
2022-12-03T08:32:45.953Z,27.45
2022-12-03T08:35:15.219Z,29.13
2022-12-03T08:37:43.101Z,27.67
2022-12-03T08:40:24.146Z,29.38
2022-12-03T08:42:51.991Z,27.23
2022-12-03T08:45:39.544Z,29.98
2022-12-03T08:48:47.042Z,28.08
2022-12-03T08:51:23.762Z,27.40
2022-12-03T08:53:58.127Z,29.83
2022-12-03T08:56:30.578Z,28.15
2022-12-03T08:59:00.116Z,32.20
2022-12-03T09:01:38.256Z,31.02
2022-12-03T09:04:27.118Z,30.42
2022-12-03T09:06:55.901Z,29.67
2022-12-03T09:09:24.834Z,27.42
2022-12-03T09:11:52.738Z,29.10
2022-12-03T09:14:22.620Z,31.88
2022-12-03T09:16:51.968Z,30.20
2022-12-03T09:19:19.932Z,29.77
2022-12-03T09:21:49.119Z,33.22
2022-12-03T09:24:16.949Z,30.73
2022-12-03T09:26:44.833Z,31.30
2022-12-03T09:29:13.141Z,29.05
2022-12-03T09:31:41.412Z,26.35
2022-12-03T09:34:09.780Z,23.33
2022-12-03T09:36:37.656Z,25.10
2022-12-03T09:39:07.396Z,26.38
2022-12-03T09:41:35.284Z,28.48
2022-12-03T09:44:04.688Z,28.50
2022-12-03T09:46:35.133Z,29.63
2022-12-03T09:49:03.749Z,23.55
2022-12-03T09:51:33.991Z,29.13
2022-12-03T09:54:02.384Z,26.88
2022-12-03T09:56:31.947Z,23.95
2022-12-03T09:59:00.130Z,24.27
2022-12-03T10:01:30.373Z,25.05
2022-12-03T10:03:59.479Z,24.55
2022-12-03T10:06:27.462Z,24.15
2022-12-03T10:08:56.531Z,25.80
2022-12-03T10:11:26.878Z,29.98
2022-12-03T10:13:57.298Z,30.08
2022-12-03T10:16:26.101Z,27.73
2022-12-03T10:18:57.693Z,24.25
2022-12-03T10:21:29.910Z,26.30
2022-12-03T10:26:49.738Z,25.67
2022-12-03T10:29:21.720Z,27.27
2022-12-03T10:31:57.012Z,25.95
2022-12-03T10:34:26.256Z,26.75
2022-12-03T10:37:11.444Z,28.05
2022-12-03T10:39:56.964Z,25.08
2022-12-03T10:42:25.560Z,24.48
2022-12-03T10:45:20.239Z,23.60
2022-12-03T10:48:04.833Z,27.75
2022-12-03T10:50:33.450Z,26.90
2022-12-03T10:53:01.363Z,23.55
2022-12-03T10:55:33.101Z,24.33
2022-12-03T10:58:01.053Z,26.23
2022-12-03T11:00:30.227Z,25.50
2022-12-03T11:02:58.149Z,30.35
2022-12-03T11:05:28.368Z,28.50
2022-12-03T11:07:56.902Z,25.92
2022-12-03T11:10:25.256Z,28.17
2022-12-03T11:13:30.555Z,29.23
2022-12-03T11:16:00.437Z,27.05
2022-12-03T11:19:00.410Z,30.10
2022-12-03T11:21:28.294Z,27.77
2022-12-03T11:24:21.013Z,26.52
2022-12-03T11:27:21.931Z,25.25
2022-12-03T11:29:56.248Z,24.92
2022-12-03T11:33:09.517Z,27.35
2022-12-03T11:36:07.113Z,26.95
2022-12-03T11:39:00.006Z,27.58
2022-12-03T11:41:31.532Z,26.20
2022-12-03T11:44:21.867Z,19.50
2022-12-03T11:46:50.112Z,25.60
2022-12-03T11:49:37.419Z,26.40
2022-12-03T11:52:27.324Z,29.88
2022-12-03T11:55:01.084Z,30.23
2022-12-03T11:57:35.638Z,26.10
2022-12-03T12:00:08.312Z,28.60
2022-12-03T12:02:36.229Z,22.80
2022-12-03T12:05:34.612Z,27.63
2022-12-03T12:08:03.629Z,26.80
2022-12-03T12:10:45.554Z,26.95
2022-12-03T12:13:50.140Z,17.77
2022-12-03T12:16:40.959Z,24.95
2022-12-03T12:19:41.356Z,25.33
2022-12-03T12:22:30.800Z,28.60
2022-12-03T12:25:00.196Z,25.50
2022-12-03T12:27:37.326Z,24.20
2022-12-03T12:30:08.129Z,25.95
2022-12-03T12:32:45.042Z,26.73
2022-12-03T12:35:19.250Z,28.48
2022-12-03T12:37:56.801Z,23.02
2022-12-03T12:40:29.354Z,27.27
2022-12-03T12:43:00.256Z,27.83
2022-12-03T12:45:29.928Z,29.30
2022-12-03T12:48:06.627Z,29.20
2022-12-03T12:50:34.839Z,29.90
2022-12-03T12:53:09.536Z,25.17
2022-12-03T12:55:37.803Z,27.52
2022-12-03T12:58:12.544Z,27.25
2022-12-03T13:00:40.757Z,28.95
2022-12-03T13:03:09.323Z,25.85
2022-12-03T13:05:43.693Z,26.15
2022-12-03T13:08:23.007Z,25.58
2022-12-03T13:10:51.955Z,27.42
2022-12-03T13:13:43.353Z,32.25
2022-12-03T13:16:17.999Z,32.78
2022-12-03T13:18:48.027Z,31.67
2022-12-03T13:21:25.395Z,31.40
2022-12-03T13:23:55.461Z,29.33
2022-12-03T13:26:38.523Z,32.10
2022-12-03T13:29:16.975Z,31.83
2022-12-03T13:31:51.476Z,32.42
2022-12-03T13:34:22.271Z,35.70
2022-12-03T13:36:56.980Z,33.75
2022-12-03T13:39:30.360Z,33.33
2022-12-03T13:42:17.698Z,31.52
2022-12-03T13:44:49.146Z,32.90
2022-12-03T13:47:19.717Z,25.38
2022-12-03T13:49:53.606Z,31.13
2022-12-03T13:52:24.149Z,32.50
2022-12-03T13:54:54.726Z,34.13
2022-12-03T13:57:23.255Z,31.20
2022-12-03T13:59:52.803Z,30.85
2022-12-03T14:02:21.326Z,33.13
2022-12-03T14:04:49.260Z,34.08
2022-12-03T14:07:17.485Z,33.83
2022-12-03T14:09:45.373Z,30.70
2022-12-03T14:12:30.147Z,29.75
2022-12-03T14:14:59.294Z,29.85
2022-12-03T14:17:27.180Z,33.17
2022-12-03T14:19:55.121Z,35.03
2022-12-03T14:22:25.244Z,34.72
2022-12-03T14:24:53.620Z,28.38
2022-12-03T14:27:22.333Z,29.63
2022-12-03T14:29:50.183Z,29.42
2022-12-03T14:32:19.380Z,28.33
2022-12-03T14:34:47.216Z,28.67
2022-12-03T14:37:15.233Z,28.85
2022-12-03T14:39:43.161Z,29.63
2022-12-03T14:42:16.880Z,31.75
2022-12-03T14:44:47.009Z,29.13
2022-12-03T14:47:16.043Z,34.35
2022-12-03T14:49:45.433Z,30.40
2022-12-03T14:52:13.518Z,28.75
2022-12-03T14:54:42.525Z,28.95
2022-12-03T14:57:11.643Z,28.77
2022-12-03T14:59:39.791Z,29.67
2022-12-03T15:02:08.020Z,29.85
2022-12-03T15:04:35.896Z,28.33
2022-12-03T15:07:05.178Z,30.20
2022-12-03T15:09:33.178Z,30.63
2022-12-03T15:12:01.037Z,30.90
2022-12-03T15:14:29.039Z,26.58
2022-12-03T15:16:57.294Z,29.83
2022-12-03T15:19:25.248Z,30.73
2022-12-03T15:21:53.055Z,27.15
2022-12-03T15:24:22.253Z,29.02
2022-12-03T15:26:52.153Z,30.13
2022-12-03T15:29:37.912Z,28.17
2022-12-03T15:32:06.093Z,30.75
2022-12-03T15:34:33.933Z,34.17
2022-12-03T15:37:01.818Z,32.42
2022-12-03T15:39:30.992Z,27.42
2022-12-03T15:41:58.861Z,28.63
2022-12-03T15:44:26.712Z,26.17
2022-12-03T15:46:54.603Z,26.83
2022-12-03T15:49:22.461Z,28.00
2022-12-03T15:51:50.305Z,23.77
2022-12-03T15:54:18.204Z,31.42
2022-12-03T15:56:48.268Z,26.60
2022-12-03T15:59:17.387Z,18.10
2022-12-03T16:01:45.294Z,27.75
2022-12-03T16:04:13.169Z,26.45
2022-12-03T16:06:41.062Z,24.73
2022-12-03T16:09:08.935Z,22.33
2022-12-03T16:11:36.782Z,24.00
2022-12-03T16:14:06.044Z,28.33
2022-12-03T16:16:34.041Z,27.13
2022-12-03T16:19:02.296Z,25.42
2022-12-03T16:21:30.376Z,25.25
2022-12-03T16:23:59.173Z,26.60
2022-12-03T16:26:27.040Z,28.45
2022-12-03T16:28:54.989Z,23.40
2022-12-03T16:31:24.470Z,26.50
2022-12-03T16:33:52.405Z,24.58
2022-12-03T16:36:20.210Z,26.75
2022-12-03T16:38:48.067Z,25.52
2022-12-03T16:41:15.960Z,27.33
2022-12-03T16:43:46.896Z,24.05
2022-12-03T16:46:26.111Z,23.77
2022-12-03T16:48:57.861Z,22.83
2022-12-03T16:51:26.823Z,23.53
2022-12-03T16:53:54.812Z,23.10
2022-12-03T16:56:22.701Z,23.58
2022-12-03T16:58:50.555Z,21.55
2022-12-03T17:01:18.756Z,23.95
2022-12-03T17:03:46.689Z,24.38
2022-12-03T17:06:15.962Z,23.52
2022-12-03T17:08:49.049Z,24.88
2022-12-03T17:11:18.235Z,24.85
2022-12-03T17:13:46.058Z,29.02
2022-12-03T17:16:14.002Z,24.23
2022-12-03T17:18:42.423Z,29.35
2022-12-03T17:21:10.283Z,26.77
2022-12-03T17:23:39.543Z,23.83
2022-12-03T17:26:07.411Z,26.25
2022-12-03T17:28:35.592Z,24.35
2022-12-03T17:31:03.466Z,29.73
2022-12-03T17:33:31.339Z,28.33
2022-12-03T17:35:59.209Z,28.88
2022-12-03T17:38:27.116Z,26.70
2022-12-03T17:40:56.292Z,25.98
2022-12-03T17:43:24.200Z,27.55
2022-12-03T17:45:52.063Z,26.83
2022-12-03T17:48:20.239Z,26.83
2022-12-03T17:50:50.081Z,32.00
2022-12-03T17:53:17.950Z,28.52
2022-12-03T17:55:46.921Z,25.60
2022-12-03T17:58:16.406Z,28.42
2022-12-03T18:00:44.270Z,29.05
2022-12-03T18:03:12.170Z,28.67
2022-12-03T18:05:40.009Z,25.20
2022-12-03T18:08:07.947Z,24.52
2022-12-03T18:10:36.083Z,26.33
2022-12-03T18:13:03.938Z,24.83
2022-12-03T18:15:33.448Z,25.25
2022-12-03T18:18:01.288Z,27.55
2022-12-03T18:20:29.548Z,25.27
2022-12-03T18:22:59.004Z,24.20
2022-12-03T18:25:27.150Z,26.15
2022-12-03T18:27:55.013Z,23.88
2022-12-03T18:30:23.467Z,26.55
2022-12-03T18:32:52.717Z,24.25
2022-12-03T18:35:20.705Z,25.38
2022-12-03T18:37:50.629Z,25.38
2022-12-03T18:40:20.081Z,26.00
2022-12-03T18:42:48.130Z,24.08
2022-12-03T18:45:16.598Z,25.98
2022-12-03T18:47:44.674Z,25.75
2022-12-03T18:50:14.324Z,25.90
2022-12-03T18:52:42.224Z,26.80
2022-12-03T18:55:15.802Z,27.17
2022-12-03T18:57:43.643Z,25.20
2022-12-03T19:00:13.850Z,27.05
2022-12-03T19:05:31.992Z,22.65
2022-12-03T19:07:59.902Z,24.58
2022-12-03T19:10:27.800Z,28.17
2022-12-03T19:12:55.616Z,25.05
2022-12-03T19:15:24.037Z,22.45
2022-12-03T19:17:52.197Z,25.45
2022-12-03T19:20:20.202Z,24.83
2022-12-03T19:22:49.372Z,29.17
2022-12-03T19:25:17.312Z,25.45
2022-12-03T19:27:45.132Z,27.63
2022-12-03T19:30:13.816Z,26.52
2022-12-03T19:32:41.633Z,25.27
2022-12-03T19:35:11.268Z,25.40
2022-12-03T19:37:39.343Z,27.05
2022-12-03T19:40:11.193Z,26.35
2022-12-03T19:42:40.244Z,25.73
2022-12-03T19:45:09.275Z,29.02
2022-12-03T19:47:37.547Z,30.63
2022-12-03T19:50:06.648Z,28.42
2022-12-03T19:52:36.457Z,29.15
2022-12-03T19:55:05.067Z,29.13
2022-12-03T19:57:34.321Z,25.50
2022-12-03T20:00:02.207Z,24.85
2022-12-03T20:02:30.117Z,26.38
2022-12-03T20:04:58.055Z,28.25
2022-12-03T20:07:26.031Z,26.65
2022-12-03T20:09:54.303Z,25.42
2022-12-03T20:12:22.294Z,28.15
2022-12-03T20:14:51.645Z,22.50
2022-12-03T20:17:19.467Z,24.83
2022-12-03T20:19:47.444Z,24.63
2022-12-03T20:22:15.283Z,23.67
2022-12-03T20:24:43.236Z,25.00
2022-12-03T20:27:11.058Z,23.83
2022-12-03T20:29:39.435Z,27.77
2022-12-03T20:32:08.715Z,22.73
2022-12-03T20:34:36.584Z,25.48
2022-12-03T20:37:04.528Z,25.52
2022-12-03T20:39:32.354Z,26.60
2022-12-03T20:42:00.146Z,24.35
2022-12-03T20:44:27.979Z,24.83
2022-12-03T20:46:55.813Z,22.95
2022-12-03T20:49:24.985Z,24.02
2022-12-03T20:51:52.820Z,24.63
2022-12-03T20:54:20.641Z,28.98
2022-12-03T20:56:48.697Z,26.42
2022-12-03T20:59:17.862Z,23.35
2022-12-03T21:01:46.118Z,25.30
2022-12-03T21:04:15.972Z,23.08
2022-12-03T21:06:46.367Z,21.73
2022-12-03T21:09:14.556Z,23.20
2022-12-03T21:11:42.533Z,23.92
2022-12-03T21:14:11.813Z,22.77
2022-12-03T21:19:30.256Z,23.77
2022-12-03T21:21:59.455Z,25.75
2022-12-03T21:24:27.297Z,23.80
2022-12-03T21:26:55.147Z,26.75
2022-12-03T21:29:23.214Z,25.77
2022-12-03T21:31:51.102Z,21.52
2022-12-03T21:34:19.016Z,22.92
2022-12-03T21:36:46.920Z,25.02
2022-12-03T21:39:16.075Z,20.77
2022-12-03T21:42:35.008Z,23.98
2022-12-03T21:44:31.821Z,23.20
2022-12-03T21:47:10.471Z,26.10
2022-12-03T21:49:41.914Z,22.67
2022-12-03T21:52:10.143Z,26.75
2022-12-03T21:54:39.354Z,25.80
2022-12-03T21:57:07.210Z,22.77
2022-12-03T21:59:35.043Z,25.27
2022-12-03T22:02:03.114Z,25.65
2022-12-03T22:04:31.071Z,24.15
2022-12-03T22:06:58.915Z,24.63
2022-12-03T22:09:27.178Z,27.63
2022-12-03T22:11:59.121Z,21.08
2022-12-03T22:14:27.788Z,19.60
2022-12-03T22:16:55.716Z,20.17
2022-12-03T22:19:24.072Z,23.17
2022-12-03T22:21:51.900Z,20.83
2022-12-03T22:24:19.868Z,19.88
2022-12-03T22:26:48.363Z,20.85
2022-12-03T22:29:17.510Z,20.23
2022-12-03T22:31:45.334Z,25.88
2022-12-03T22:34:13.174Z,26.75
2022-12-03T22:36:40.971Z,25.20
2022-12-03T22:39:08.796Z,24.13
2022-12-03T22:41:36.606Z,24.73
2022-12-03T22:44:04.461Z,23.63
2022-12-03T22:46:33.736Z,23.00
2022-12-03T22:49:06.783Z,23.73
2022-12-03T22:51:35.482Z,22.65
2022-12-03T22:54:03.343Z,23.60
2022-12-03T22:56:31.974Z,23.25
2022-12-03T22:59:00.107Z,22.83
2022-12-03T23:01:29.764Z,20.80
2022-12-03T23:03:59.583Z,18.92
2022-12-03T23:06:28.714Z,17.67
2022-12-03T23:08:57.543Z,17.15
2022-12-03T23:11:26.040Z,17.40
2022-12-03T23:13:54.510Z,17.30
2022-12-03T23:16:27.218Z,24.13
2022-12-03T23:18:55.325Z,20.10
2022-12-03T23:21:29.957Z,21.13
2022-12-03T23:23:58.537Z,20.50
2022-12-03T23:26:26.499Z,22.45
2022-12-03T23:28:54.445Z,26.35
2022-12-03T23:31:24.531Z,25.52
2022-12-03T23:33:53.156Z,21.02
2022-12-03T23:36:22.108Z,21.25
2022-12-03T23:38:51.432Z,21.65
2022-12-03T23:41:22.386Z,21.52
2022-12-03T23:43:50.400Z,20.77
2022-12-03T23:46:20.710Z,19.77
2022-12-03T23:48:48.814Z,19.20
2022-12-03T23:51:18.934Z,22.75
2022-12-03T23:53:47.198Z,24.63
2022-12-03T23:56:18.602Z,22.90
2022-12-03T23:58:47.566Z,18.15
